Terminal Aerodrome Forecast
Issued by NWS Wichita, KS

Home | Current Version | Previous Version | Graphics & Text | Print | Product List | Glossary On
Versions: 1 2 3 4 5 6 7 8 9 10 11 12 13 14 15 16 17 18 19 20 21 22
303
FTUS43 KICT 250325 AAC
TAFICT
TAF AMD
KICT 250325Z 2503/2524 VRB06KT P6SM BKN100
     FM250500 VRB06KT P6SM VCTS SCT060CB BKN100
     FM250900 17007KT P6SM VCTS OVC025CB
     FM251600 12006KT P6SM SCT035 BKN080
     FM252100 12007KT P6SM VCTS BKN035CB=

USA.gov is the U.S. government's official web portal to all federal, state and local government web resources and services.